Time;durP1;ratioP1;P1;durP2;ratioP2;P2;SDS_P1;SDS_P2;PMS_P1;PMS_P2;Temp;Humidity;BMP_temperature;BMP_pressure;BME280_temperature;BME280_humidity;BME280_pressure;Samples;Min_cycle;Max_cycle;Signal;HPM_P1;HPM_P2
2022/03/19 00:01:03;;;;;;;38.92;18.48;;;;;;;4.67;56.96;95567.53;5028722;28;20037;-53
2022/03/19 00:03:30;;;;;;;42.78;23.73;;;;;;;4.69;56.77;95581.59;5028667;28;20041;-56
2022/03/19 00:05:57;;;;;;;41.65;20.42;;;;;;;4.69;56.45;95578.06;5028833;28;20063;-51
2022/03/19 00:08:24;;;;;;;41.50;19.52;;;;;;;4.69;57.26;95570.72;5044405;28;20041;-54
2022/03/19 00:10:51;;;;;;;43.40;18.60;;;;;;;4.68;56.89;95577.28;5049198;28;20036;-52
2022/03/19 00:13:18;;;;;;;43.58;24.33;;;;;;;4.65;57.51;95590.75;5048243;28;20044;-48
2022/03/19 00:15:45;;;;;;;41.45;19.20;;;;;;;4.65;57.12;95579.88;5048585;28;20041;-49
2022/03/19 00:18:12;;;;;;;42.03;21.73;;;;;;;4.60;57.28;95594.47;5048671;28;20049;-51
2022/03/19 00:20:39;;;;;;;39.05;18.88;;;;;;;4.62;58.42;95577.84;5046949;28;20045;-52
2022/03/19 00:23:07;;;;;;;39.97;19.50;;;;;;;4.53;58.40;95583.38;5048667;28;20468;-56
2022/03/19 00:25:34;;;;;;;42.22;20.70;;;;;;;4.54;57.86;95571.34;5049386;28;20453;-54
2022/03/19 00:28:01;;;;;;;42.15;21.20;;;;;;;4.45;58.95;95574.16;5052455;28;20448;-48
2022/03/19 00:30:28;;;;;;;43.10;20.33;;;;;;;4.44;58.42;95580.72;5051731;28;20381;-50
2022/03/19 00:32:54;;;;;;;42.90;19.75;;;;;;;4.46;58.94;95580.41;5052132;28;20055;-53
2022/03/19 00:35:21;;;;;;;43.40;20.90;;;;;;;4.44;59.20;95582.66;5051557;28;20071;-57
2022/03/19 00:37:50;;;;;;;43.83;21.20;;;;;;;4.42;58.58;95565.88;5044095;28;20046;-51
2022/03/19 00:40:19;;;;;;;42.17;20.95;;;;;;;4.37;58.96;95572.34;5047064;28;20052;-57
2022/03/19 00:42:48;;;;;;;43.88;20.75;;;;;;;4.34;59.35;95564.84;5032336;28;20044;-51
2022/03/19 00:45:15;;;;;;;43.88;21.55;;;;;;;4.32;58.81;95570.59;5032100;28;20053;-55
2022/03/19 00:47:42;;;;;;;43.53;21.10;;;;;;;4.36;59.53;95563.38;5031230;28;21820;-53
2022/03/19 00:50:09;;;;;;;44.55;21.92;;;;;;;4.40;58.31;95558.06;5030983;28;20448;-47
2022/03/19 00:52:36;;;;;;;41.65;19.70;;;;;;;4.30;59.55;95567.41;5031452;28;20087;-51
2022/03/19 00:55:03;;;;;;;43.70;20.95;;;;;;;4.30;59.29;95559.28;5014259;28;20441;-48
2022/03/19 00:57:41;;;;;;;42.90;21.02;;;;;;;4.24;59.71;95541.59;5031582;28;20417;-48
2022/03/19 01:00:11;;;;;;;44.27;21.33;;;;;;;4.24;59.69;95555.19;5031962;28;20049;-49
2022/03/19 01:02:40;;;;;;;46.28;21.48;;;;;;;4.17;59.94;95554.94;5031743;28;20038;-48
2022/03/19 01:05:08;;;;;;;43.08;21.85;;;;;;;4.15;60.35;95557.97;5031906;28;20045;-56
2022/03/19 01:07:43;;;;;;;44.88;20.60;;;;;;;4.06;60.06;95540.94;5040753;28;20053;-60
2022/03/19 01:10:12;;;;;;;48.45;21.73;;;;;;;4.06;60.88;95540.94;5051685;28;20058;-51
2022/03/19 01:12:39;;;;;;;49.40;22.53;;;;;;;4.02;61.14;95544.69;5066420;28;20401;-52
2022/03/19 01:15:06;;;;;;;48.17;22.42;;;;;;;4.03;61.09;95546.28;5050377;28;20056;-50
2022/03/19 01:17:33;;;;;;;48.65;23.23;;;;;;;3.96;61.36;95558.47;5050636;28;20037;-50
2022/03/19 01:20:01;;;;;;;43.92;20.58;;;;;;;4.06;60.38;95524.66;5050133;28;20045;-48
2022/03/19 01:22:28;;;;;;;45.25;21.90;;;;;;;3.98;61.07;95548.06;5050885;28;20045;-54
2022/03/19 01:24:57;;;;;;;47.40;22.33;;;;;;;3.95;61.38;95542.50;5051432;28;20064;-52
2022/03/19 01:27:24;;;;;;;50.28;22.92;;;;;;;3.90;61.11;95545.41;5051114;28;20056;-51
2022/03/19 01:29:50;;;;;;;44.42;21.00;;;;;;;3.91;60.61;95561.38;5051173;28;20044;-46
2022/03/19 01:32:17;;;;;;;44.80;22.38;;;;;;;3.95;60.87;95561.53;5050661;28;20049;-50
2022/03/19 01:34:44;;;;;;;44.28;20.90;;;;;;;3.97;60.49;95551.13;5050997;28;20037;-50
2022/03/19 01:37:11;;;;;;;47.40;21.90;;;;;;;3.94;60.21;95551.78;5048175;28;20049;-47
2022/03/19 01:39:38;;;;;;;43.40;20.63;;;;;;;4.00;60.47;95537.66;5033649;28;20569;-55
2022/03/19 01:42:05;;;;;;;45.70;21.75;;;;;;;3.99;59.97;95540.72;5031100;28;20111;-55
2022/03/19 01:44:32;;;;;;;47.55;22.42;;;;;;;3.97;60.35;95545.69;5030521;28;20048;-49
2022/03/19 01:47:06;;;;;;;44.72;21.55;;;;;;;4.02;59.55;95560.97;5030925;28;20064;-52
2022/03/19 01:49:33;;;;;;;45.83;21.70;;;;;;;4.05;59.72;95533.94;5030591;28;20122;-49
2022/03/19 01:52:00;;;;;;;48.33;22.15;;;;;;;3.99;60.15;95565.16;5030989;28;20049;-50
2022/03/19 01:54:31;;;;;;;47.35;24.00;;;;;;;3.97;59.60;95538.31;5030458;28;20429;-48
2022/03/19 01:56:59;;;;;;;49.25;24.92;;;;;;;3.98;59.56;95539.13;5030926;28;20051;-53
2022/03/19 01:59:30;;;;;;;47.85;22.23;;;;;;;4.02;59.46;95547.41;5028942;28;20045;-52
2022/03/19 02:01:59;;;;;;;48.00;23.47;;;;;;;3.89;59.83;95536.47;5030821;28;20037;-55
2022/03/19 02:04:28;;;;;;;47.85;22.55;;;;;;;3.89;58.99;95517.47;5030205;28;20479;-51
2022/03/19 02:06:55;;;;;;;47.65;22.73;;;;;;;3.94;59.15;95547.16;5034217;28;20044;-50
2022/03/19 02:09:23;;;;;;;51.22;23.20;;;;;;;3.95;59.60;95534.38;5049888;28;20052;-61
2022/03/19 02:11:49;;;;;;;53.10;25.42;;;;;;;3.94;59.64;95546.34;5050604;28;20033;-47
2022/03/19 02:14:16;;;;;;;48.83;22.63;;;;;;;3.89;59.43;95533.75;5048742;28;20040;-56
2022/03/19 02:16:43;;;;;;;44.83;20.65;;;;;;;3.91;59.23;95496.19;5043049;28;20038;-47
2022/03/19 02:19:10;;;;;;;48.25;24.08;;;;;;;4.03;59.39;95533.50;5030435;28;20057;-47
2022/03/19 02:21:43;;;;;;;51.28;23.67;;;;;;;3.95;58.86;95532.44;5029844;28;20091;-49
2022/03/19 02:26:56;;;;;;;52.20;26.27;;;;;;;3.94;59.06;95530.84;5034674;28;20230;-48
2022/03/19 02:29:23;;;;;;;52.33;23.30;;;;;;;3.98;59.58;95528.25;5038016;28;20049;-51
2022/03/19 02:31:57;;;;;;;52.72;25.15;;;;;;;3.90;59.67;95521.75;5030265;28;20059;-50
2022/03/19 02:34:25;;;;;;;56.53;25.98;;;;;;;3.91;60.20;95522.56;5029727;28;20045;-53
2022/03/19 02:36:52;;;;;;;54.20;26.75;;;;;;;3.83;61.29;95545.16;5030077;28;20510;-51
2022/03/19 02:39:32;;;;;;;51.63;24.10;;;;;;;3.86;60.84;95509.97;5029725;28;20053;-57
2022/03/19 02:42:02;;;;;;;53.33;24.38;;;;;;;3.80;61.88;95509.41;5030221;28;20040;-49
2022/03/19 02:44:29;;;;;;;55.28;25.50;;;;;;;3.78;61.53;95508.94;5029294;28;20118;-56
2022/03/19 02:46:59;;;;;;;55.72;24.90;;;;;;;3.74;61.95;95512.63;5030032;28;20045;-53
2022/03/19 02:49:26;;;;;;;57.25;27.38;;;;;;;3.72;62.11;95521.13;5028839;28;20053;-52
2022/03/19 02:51:54;;;;;;;55.87;25.03;;;;;;;3.77;62.14;95512.78;5028574;28;20038;-50
2022/03/19 02:54:23;;;;;;;56.72;25.60;;;;;;;3.73;62.22;95522.72;5029339;28;20428;-51
2022/03/19 02:56:52;;;;;;;56.60;26.05;;;;;;;3.68;62.09;95519.41;5029730;28;20041;-48
2022/03/19 02:59:21;;;;;;;55.70;26.27;;;;;;;3.67;63.11;95517.81;5029030;28;20057;-51
2022/03/19 03:01:50;;;;;;;55.10;25.83;;;;;;;3.67;62.93;95510.47;5029504;28;20386;-52
2022/03/19 03:04:18;;;;;;;56.07;26.80;;;;;;;3.69;62.12;95526.44;5029107;28;20068;-56
2022/03/19 03:06:47;;;;;;;54.28;26.08;;;;;;;3.76;62.60;95526.69;5031904;28;20058;-51
2022/03/19 03:09:17;;;;;;;46.58;20.80;;;;;;;3.74;62.48;95505.31;5049535;28;20052;-55
2022/03/19 03:11:44;;;;;;;55.38;25.45;;;;;;;3.69;62.91;95515.56;5048593;28;21612;-50
2022/03/19 03:14:13;;;;;;;55.60;26.42;;;;;;;3.65;62.54;95529.00;5049372;28;20041;-54
2022/03/19 03:16:41;;;;;;;55.80;28.40;;;;;;;3.68;62.65;95527.53;5048720;28;20087;-56
2022/03/19 03:19:11;;;;;;;49.90;23.90;;;;;;;3.61;63.44;95522.66;5048005;28;20045;-51
2022/03/19 03:21:39;;;;;;;56.78;26.20;;;;;;;3.56;63.04;95518.22;5048887;28;20064;-55
2022/03/19 03:24:10;;;;;;;53.92;25.20;;;;;;;3.48;63.97;95510.94;5047988;28;20160;-53
2022/03/19 03:26:38;;;;;;;56.30;26.15;;;;;;;3.50;63.61;95516.03;5047818;28;20045;-48
2022/03/19 03:29:05;;;;;;;58.20;26.23;;;;;;;3.47;63.72;95513.97;5049240;28;20393;-47
2022/03/19 03:31:33;;;;;;;56.45;25.17;;;;;;;3.41;64.28;95516.09;5048823;28;20045;-48
2022/03/19 03:34:00;;;;;;;58.15;26.98;;;;;;;3.40;63.83;95520.72;5047824;28;20067;-49
2022/03/19 03:36:27;;;;;;;57.78;25.88;;;;;;;3.43;63.46;95504.91;5048697;28;20045;-55
2022/03/19 03:38:54;;;;;;;52.45;25.25;;;;;;;3.40;63.62;95522.63;5049152;28;20044;-51
2022/03/19 03:41:21;;;;;;;55.50;25.13;;;;;;;3.46;63.86;95507.78;5047305;28;20151;-56
2022/03/19 03:43:48;;;;;;;54.80;24.80;;;;;;;3.41;63.83;95513.38;5049147;28;20037;-50
2022/03/19 03:46:15;;;;;;;56.67;24.35;;;;;;;3.42;63.57;95508.75;5049290;28;20044;-51
2022/03/19 03:48:42;;;;;;;56.63;25.73;;;;;;;3.41;63.73;95502.53;5048163;28;20848;-50
2022/03/19 03:51:11;;;;;;;55.47;25.73;;;;;;;3.29;63.92;95497.03;5048927;28;20167;-57
2022/03/19 03:53:39;;;;;;;51.90;25.20;;;;;;;3.42;63.51;95504.13;5048886;28;20055;-58
2022/03/19 03:56:07;;;;;;;55.65;24.83;;;;;;;3.33;63.52;95520.44;5044562;28;20481;-56
2022/03/19 03:58:34;;;;;;;52.15;25.30;;;;;;;3.41;63.58;95491.66;5036829;28;20044;-56
2022/03/19 04:01:01;;;;;;;55.25;26.40;;;;;;;3.35;64.33;95499.22;5052418;28;20041;-51
2022/03/19 04:03:28;;;;;;;56.17;25.33;;;;;;;3.45;63.86;95494.53;5052281;28;20417;-54
2022/03/19 04:05:55;;;;;;;57.87;26.50;;;;;;;3.35;63.68;95499.22;5052991;28;20098;-48
2022/03/19 04:08:21;;;;;;;55.65;26.38;;;;;;;3.24;64.75;95483.66;5052096;28;20485;-48
2022/03/19 04:10:48;;;;;;;55.85;25.65;;;;;;;3.22;64.61;95508.41;5052488;28;20067;-56
2022/03/19 04:13:15;;;;;;;59.63;27.58;;;;;;;3.22;65.05;95494.03;5052783;28;20111;-54
2022/03/19 04:15:42;;;;;;;56.65;25.65;;;;;;;3.14;65.35;95495.66;5051662;28;20906;-50
2022/03/19 04:18:09;;;;;;;62.50;29.43;;;;;;;3.11;65.37;95513.41;5052392;28;20052;-50
2022/03/19 04:20:35;;;;;;;61.63;27.10;;;;;;;3.12;65.69;95495.22;5052213;28;20416;-48
2022/03/19 04:23:02;;;;;;;59.13;27.50;;;;;;;3.10;66.11;95490.13;5052638;28;20063;-48
2022/03/19 04:25:29;;;;;;;59.58;26.67;;;;;;;3.09;66.12;95493.16;5051904;28;20041;-51
2022/03/19 04:27:57;;;;;;;60.00;26.38;;;;;;;3.14;66.59;95495.66;5052513;28;20041;-51
2022/03/19 04:30:27;;;;;;;59.37;26.93;;;;;;;3.11;66.05;95497.13;5051891;28;20041;-51
2022/03/19 04:32:56;;;;;;;62.13;27.48;;;;;;;3.11;66.31;95499.84;5052263;28;20045;-58
2022/03/19 04:38:16;;;;;;;63.88;27.02;;;;;;;2.96;66.76;95495.78;5052225;28;20121;-55
2022/03/19 04:40:43;;;;;;;59.80;26.90;;;;;;;2.90;66.96;95491.69;5050242;28;20055;-49
2022/03/19 04:43:11;;;;;;;59.37;26.13;;;;;;;2.96;66.79;95486.88;5052205;28;20049;-48
2022/03/19 04:45:39;;;;;;;59.38;26.20;;;;;;;2.96;66.81;95508.56;5051633;28;20528;-48
2022/03/19 04:48:07;;;;;;;61.92;31.58;;;;;;;2.93;66.23;95466.59;5039252;28;20311;-49
2022/03/19 04:50:38;;;;;;;58.05;25.92;;;;;;;2.94;66.65;95494.53;5050550;28;20049;-54
2022/03/19 04:53:06;;;;;;;62.30;28.20;;;;;;;2.83;66.47;95491.38;5051859;28;20063;-52
2022/03/19 04:55:37;;;;;;;60.90;27.83;;;;;;;2.74;67.50;95504.22;5051417;28;20098;-52
2022/03/19 04:58:05;;;;;;;58.83;25.63;;;;;;;2.82;66.97;95497.94;5050579;28;20049;-49
2022/03/19 05:00:32;;;;;;;62.05;28.60;;;;;;;2.83;66.74;95494.09;5050945;28;20126;-52
2022/03/19 05:03:04;;;;;;;58.38;27.33;;;;;;;2.82;66.57;95492.53;5051849;28;20045;-59
2022/03/19 05:05:31;;;;;;;61.25;27.35;;;;;;;2.84;66.65;95497.59;5051169;28;20237;-54
2022/03/19 05:07:59;;;;;;;59.70;26.20;;;;;;;2.79;67.20;95485.81;5051745;28;20051;-52
2022/03/19 05:13:12;;;;;;;61.50;27.73;;;;;;;2.74;67.26;95493.38;5051747;28;20123;-52
2022/03/19 05:15:39;;;;;;;60.30;25.88;;;;;;;2.71;67.42;95489.38;5050993;28;20041;-49
2022/03/19 05:18:06;;;;;;;64.63;29.75;;;;;;;2.80;66.91;95481.22;5050066;28;20123;-50
2022/03/19 05:20:35;;;;;;;60.80;27.83;;;;;;;2.76;67.09;95483.00;5036711;28;20037;-51
2022/03/19 05:23:04;;;;;;;63.58;27.90;;;;;;;2.77;67.48;95471.78;5031203;28;20440;-49
2022/03/19 05:25:31;;;;;;;61.28;27.70;;;;;;;2.76;67.31;95481.06;5030566;28;20049;-51
2022/03/19 05:27:57;;;;;;;59.83;26.42;;;;;;;2.70;67.74;95497.84;5031422;28;20120;-49
2022/03/19 05:30:24;;;;;;;65.55;28.73;;;;;;;2.82;67.12;95492.53;5031005;28;20048;-59
2022/03/19 05:32:52;;;;;;;61.93;27.00;;;;;;;2.79;66.92;95509.44;5031557;28;20049;-51
2022/03/19 05:35:20;;;;;;;63.47;26.42;;;;;;;2.73;67.42;95508.81;5030671;28;20422;-47
2022/03/19 05:37:47;;;;;;;64.97;27.88;;;;;;;2.66;67.67;95497.69;5031015;28;20045;-48
2022/03/19 05:40:14;;;;;;;63.03;28.13;;;;;;;2.71;67.70;95494.78;5030932;28;20049;-50
2022/03/19 05:42:41;;;;;;;63.60;27.77;;;;;;;2.75;67.67;95489.53;5045158;28;20639;-52
2022/03/19 05:45:14;;;;;;;63.40;30.70;;;;;;;2.65;68.00;95498.81;5030963;28;20588;-57
2022/03/19 05:47:43;;;;;;;64.90;29.17;;;;;;;2.73;67.42;95489.84;5030501;28;20057;-47
2022/03/19 05:50:10;;;;;;;64.20;28.58;;;;;;;2.76;67.58;95491.91;5030877;28;20053;-47
2022/03/19 05:52:37;;;;;;;63.72;28.30;;;;;;;2.80;67.52;95492.06;5030504;28;20048;-48
2022/03/19 05:55:04;;;;;;;60.10;26.15;;;;;;;2.76;67.23;95481.06;5030690;28;20049;-49
2022/03/19 05:57:31;;;;;;;63.63;28.27;;;;;;;2.83;67.10;95488.69;5030166;28;20391;-47
2022/03/19 05:59:58;;;;;;;65.05;28.48;;;;;;;2.83;67.11;95483.25;5030462;28;20041;-52
2022/03/19 06:02:26;;;;;;;63.03;28.27;;;;;;;2.87;67.21;95491.53;5030227;28;20437;-54
2022/03/19 06:04:53;;;;;;;65.13;27.65;;;;;;;2.91;66.94;95492.47;5030778;28;20041;-53
2022/03/19 06:07:20;;;;;;;58.90;26.65;;;;;;;2.90;67.04;95486.25;5037251;28;20057;-47
2022/03/19 06:09:47;;;;;;;65.03;27.80;;;;;;;2.86;66.96;95479.09;5049074;28;20047;-48
2022/03/19 06:12:14;;;;;;;75.72;34.45;;;;;;;2.98;66.45;95477.28;5050587;28;20090;-48
2022/03/19 06:14:41;;;;;;;63.50;29.40;;;;;;;2.93;66.73;95482.88;5048453;28;20049;-54
2022/03/19 06:17:07;;;;;;;59.92;27.17;;;;;;;3.06;65.88;95472.94;5039676;28;20049;-47
2022/03/19 06:19:34;;;;;;;62.47;28.80;;;;;;;3.13;65.84;95481.31;5029883;28;20048;-58
2022/03/19 06:22:01;;;;;;;59.50;27.53;;;;;;;3.23;65.61;95482.06;5030225;28;20050;-46
2022/03/19 06:24:28;;;;;;;64.45;28.65;;;;;;;3.10;65.84;95475.75;5028162;28;20049;-45
2022/03/19 06:26:54;;;;;;;62.47;29.17;;;;;;;3.14;65.84;95482.09;5030391;28;20065;-48
2022/03/19 06:29:22;;;;;;;59.42;27.75;;;;;;;3.29;65.49;95483.47;5029752;28;20045;-51
2022/03/19 06:31:49;;;;;;;62.22;27.67;;;;;;;3.32;65.04;95472.75;5045412;28;20048;-50
2022/03/19 06:34:17;;;;;;;60.07;27.73;;;;;;;3.45;64.40;95470.88;5029750;28;20049;-47
2022/03/19 06:39:29;;;;;;;60.78;27.90;;;;;;;3.63;64.06;95468.81;5029622;28;20044;-49
2022/03/19 06:41:56;;;;;;;62.53;27.73;;;;;;;3.74;63.67;95461.06;5029811;28;20437;-46
2022/03/19 06:44:22;;;;;;;59.83;26.98;;;;;;;3.96;62.22;95460.69;5029420;28;20083;-52
2022/03/19 06:46:49;;;;;;;59.87;27.50;;;;;;;3.97;62.09;95458.78;5029744;28;20167;-49
2022/03/19 06:49:16;;;;;;;58.58;27.33;;;;;;;4.03;62.04;95462.06;5029143;28;20053;-53
2022/03/19 06:51:43;;;;;;;56.00;27.80;;;;;;;4.06;62.02;95464.09;5045102;28;20041;-46
2022/03/19 06:54:10;;;;;;;59.33;27.30;;;;;;;4.22;61.48;95467.75;5029943;28;20046;-50
2022/03/19 06:56:37;;;;;;;57.88;26.35;;;;;;;4.38;60.65;95462.47;5027910;28;20130;-54
2022/03/19 06:59:03;;;;;;;55.57;26.70;;;;;;;4.37;60.17;95458.97;5029343;28;20083;-48
2022/03/19 07:01:30;;;;;;;52.55;26.00;;;;;;;4.35;60.24;95457.72;5034756;28;20049;-58
2022/03/19 07:03:57;;;;;;;54.92;26.20;;;;;;;4.47;59.53;95465.88;5039804;28;20045;-50
2022/03/19 07:06:24;;;;;;;58.25;27.08;;;;;;;4.67;58.98;95461.50;5048947;28;20044;-50
2022/03/19 07:09:11;;;;;;;52.00;25.88;;;;;;;4.59;59.04;95465.13;5049231;28;20065;-47
2022/03/19 07:11:37;;;;;;;52.50;24.77;;;;;;;4.92;58.77;95453.31;5048871;28;20106;-52
2022/03/19 07:14:05;;;;;;;52.20;25.58;;;;;;;4.89;58.33;95452.06;5049208;28;20045;-56
2022/03/19 07:16:32;;;;;;;53.35;24.83;;;;;;;4.99;57.48;95454.34;5049041;28;20044;-52
2022/03/19 07:18:59;;;;;;;53.13;25.70;;;;;;;5.20;57.12;95448.72;5049427;28;20032;-53
2022/03/19 07:21:26;;;;;;;51.75;25.52;;;;;;;5.49;56.60;95451.50;5048820;28;20044;-49
2022/03/19 07:23:53;;;;;;;52.30;25.80;;;;;;;5.35;56.39;95444.53;5049303;28;20051;-50
2022/03/19 07:26:19;;;;;;;53.00;25.58;;;;;;;5.58;55.46;95446.72;5048759;28;20043;-47
2022/03/19 07:28:46;;;;;;;50.65;24.90;;;;;;;5.82;54.58;95437.66;5049070;28;20044;-55
2022/03/19 07:31:14;;;;;;;52.90;28.40;;;;;;;5.74;53.47;95442.13;5049343;28;20037;-55
2022/03/19 07:33:41;;;;;;;45.90;24.20;;;;;;;7.63;49.96;95438.09;5048274;28;20634;-47
2022/03/19 07:36:08;;;;;;;44.20;24.67;;;;;;;11.05;41.97;95428.00;5052085;28;20047;-55
2022/03/19 07:38:35;;;;;;;44.80;25.80;;;;;;;12.88;37.86;95423.97;5052564;28;20040;-48
2022/03/19 07:43:47;;;;;;;46.40;27.40;;;;;;;15.31;33.04;95418.59;5052148;28;20385;-54
2022/03/19 07:46:14;;;;;;;40.47;26.60;;;;;;;14.07;33.71;95426.53;5051729;28;20420;-54
2022/03/19 07:48:40;;;;;;;38.87;27.80;;;;;;;14.08;32.86;95428.84;5052756;28;20047;-55
2022/03/19 07:51:08;;;;;;;42.03;27.00;;;;;;;14.13;34.50;95430.44;5053073;28;20102;-53
2022/03/19 07:53:37;;;;;;;38.75;26.23;;;;;;;14.27;32.86;95427.59;5052468;28;20051;-50
2022/03/19 07:56:04;;;;;;;38.97;26.70;;;;;;;14.93;31.89;95401.94;5052987;28;20045;-48
2022/03/19 07:58:31;;;;;;;41.38;27.98;;;;;;;15.34;30.95;95408.69;5052231;28;20502;-46
2022/03/19 08:00:57;;;;;;;36.77;25.57;;;;;;;17.12;28.59;95409.56;5052640;28;20473;-50
2022/03/19 08:03:25;;;;;;;38.20;27.25;;;;;;;14.57;31.34;95409.69;5040352;28;20063;-53
2022/03/19 08:05:51;;;;;;;37.90;27.20;;;;;;;11.35;36.67;95417.59;5052928;28;20047;-48
2022/03/19 08:08:18;;;;;;;45.78;28.70;;;;;;;12.37;34.58;95417.66;5052473;28;20059;-58
2022/03/19 08:10:45;;;;;;;40.47;27.80;;;;;;;11.73;34.90;95409.13;5052796;28;20049;-49
2022/03/19 08:13:12;;;;;;;41.97;26.67;;;;;;;14.49;31.84;95414.44;5052636;28;20047;-49
2022/03/19 08:15:41;;;;;;;38.50;26.35;;;;;;;15.07;30.77;95403.78;5052116;28;20041;-50
2022/03/19 08:18:10;;;;;;;39.65;26.52;;;;;;;16.37;28.84;95397.59;5052438;28;20048;-51
2022/03/19 08:20:38;;;;;;;37.38;25.67;;;;;;;18.70;26.31;95406.50;5052092;28;20049;-51
2022/03/19 08:23:05;;;;;;;36.92;25.90;;;;;;;18.73;25.48;95397.28;5052337;28;20428;-48
2022/03/19 08:25:32;;;;;;;37.63;26.73;;;;;;;16.56;26.95;95387.84;5051589;28;20071;-49
2022/03/19 08:28:00;;;;;;;36.10;25.95;;;;;;;19.52;25.16;95384.25;5052464;28;20045;-53
2022/03/19 08:30:32;;;;;;;35.63;26.10;;;;;;;19.70;23.82;95383.78;5051561;28;20051;-48
2022/03/19 08:32:59;;;;;;;33.80;25.33;;;;;;;18.14;25.21;95401.75;5052310;28;20051;-50
2022/03/19 08:35:26;;;;;;;34.72;25.20;;;;;;;21.06;22.16;95384.56;5051576;28;20167;-49
2022/03/19 08:40:15;;;;;;;37.13;24.40;;;;;;;16.28;26.66;95383.47;5052167;28;20041;-58
2022/03/19 08:40:39;;;;;;;36.42;26.08;;;;;;;16.18;28.14;95391.53;5051691;28;20454;-48
2022/03/19 08:43:06;;;;;;;33.25;24.55;;;;;;;18.50;24.22;95398.22;5052354;28;20500;-56
2022/03/19 08:45:33;;;;;;;32.17;23.88;;;;;;;21.07;21.79;95398.06;5050626;28;20053;-50
2022/03/19 08:48:00;;;;;;;34.22;26.27;;;;;;;14.29;28.36;95410.63;5051759;28;20045;-50
2022/03/19 08:50:28;;;;;;;34.00;24.93;;;;;;;15.92;27.47;95392.25;5051291;28;20284;-54
2022/03/19 08:52:55;;;;;;;34.33;25.30;;;;;;;17.53;24.93;95378.72;5050517;28;20037;-57
2022/03/19 08:55:22;;;;;;;34.83;25.55;;;;;;;18.04;24.72;95397.19;5051313;28;20049;-52
2022/03/19 08:57:49;;;;;;;33.65;24.67;;;;;;;16.73;25.98;95391.53;5051705;28;20057;-59
2022/03/19 09:00:16;;;;;;;34.95;25.60;;;;;;;15.02;28.01;95398.69;5051677;28;20440;-51
2022/03/19 09:02:43;;;;;;;34.03;24.93;;;;;;;17.33;25.40;95373.13;5038157;28;20041;-50
2022/03/19 09:05:11;;;;;;;33.58;25.63;;;;;;;18.31;24.71;95385.91;5047359;28;20059;-53
2022/03/19 09:07:37;;;;;;;38.03;27.33;;;;;;;15.69;27.24;95401.97;5051096;28;20397;-50
2022/03/19 09:10:04;;;;;;;34.10;25.73;;;;;;;19.06;23.50;95394.56;5051676;28;20059;-53
2022/03/19 09:12:36;;;;;;;34.25;26.50;;;;;;;19.00;22.56;95393.53;5051012;28;20056;-54
2022/03/19 09:15:04;;;;;;;34.70;26.30;;;;;;;17.93;24.71;95380.75;5051646;28;20134;-50
2022/03/19 09:17:31;;;;;;;36.17;26.73;;;;;;;16.89;25.26;95402.81;5050727;28;20041;-55
2022/03/19 09:19:58;;;;;;;34.58;26.38;;;;;;;17.20;25.30;95385.25;5049637;28;20049;-52
2022/03/19 09:22:25;;;;;;;34.20;25.45;;;;;;;18.52;24.25;95379.88;5038498;28;20042;-59
2022/03/19 09:24:51;;;;;;;34.80;26.25;;;;;;;14.91;27.33;95384.16;5049319;28;20409;-50
2022/03/19 09:27:18;;;;;;;33.73;25.77;;;;;;;19.60;22.80;95368.09;5050750;28;20045;-52
2022/03/19 09:29:45;;;;;;;40.95;28.38;;;;;;;16.11;26.50;95383.31;5051087;28;20045;-52
2022/03/19 09:32:12;;;;;;;38.80;27.00;;;;;;;15.14;28.27;95383.56;5051137;28;20045;-51
2022/03/19 09:34:40;;;;;;;36.25;27.08;;;;;;;14.14;29.90;95385.84;5050395;28;20045;-48
2022/03/19 09:37:07;;;;;;;36.90;26.08;;;;;;;15.27;28.33;95378.31;5051017;28;20037;-55
2022/03/19 09:39:34;;;;;;;36.83;27.83;;;;;;;13.12;31.03;95370.03;5050571;28;20381;-49
2022/03/19 09:42:03;;;;;;;44.00;27.90;;;;;;;13.54;30.30;95373.91;5050981;28;20048;-51
2022/03/19 09:44:30;;;;;;;36.22;27.13;;;;;;;14.38;28.87;95380.56;5049112;28;20067;-58
2022/03/19 09:46:58;;;;;;;36.97;27.60;;;;;;;13.62;29.70;95371.88;5050870;28;20102;-51
2022/03/19 09:49:24;;;;;;;36.20;28.25;;;;;;;12.45;30.86;95360.59;5050177;28;20098;-53
2022/03/19 09:51:53;;;;;;;36.83;26.10;;;;;;;16.07;27.62;95337.47;5050684;28;20045;-50
2022/03/19 09:54:22;;;;;;;38.70;26.90;;;;;;;16.21;26.95;95342.81;5050332;28;20048;-52
2022/03/19 09:56:50;;;;;;;38.83;27.80;;;;;;;15.77;27.57;95333.50;5050498;28;20045;-49
2022/03/19 09:59:18;;;;;;;33.05;24.88;;;;;;;19.29;23.87;95324.78;5049705;28;20132;-51
2022/03/19 10:01:46;;;;;;;34.63;25.73;;;;;;;22.42;20.05;95325.91;5050736;28;20048;-55
2022/03/19 10:04:17;;;;;;;38.17;27.50;;;;;;;17.98;24.56;95335.81;5050654;28;20059;-57
2022/03/19 10:09:48;;;;;;;38.85;28.35;;;;;;;14.98;29.18;95337.91;5049993;28;20039;-47
2022/03/19 10:12:27;;;;;;;39.72;29.30;;;;;;;18.43;24.84;95343.56;5050604;28;20044;-51
2022/03/19 10:14:56;;;;;;;40.70;30.08;;;;;;;18.50;24.40;95343.38;5049510;28;20405;-50
2022/03/19 10:17:33;;;;;;;44.20;31.17;;;;;;;15.73;28.26;95341.06;5037149;28;20041;-55
2022/03/19 10:20:09;;;;;;;40.97;30.60;;;;;;;15.56;27.19;95345.59;5030189;28;20045;-52
2022/03/19 10:22:45;;;;;;;39.03;28.40;;;;;;;19.73;23.16;95332.78;5030551;28;23164;-51
2022/03/19 10:25:17;;;;;;;39.30;28.33;;;;;;;17.90;23.78;95335.16;5029168;28;20490;-58
2022/03/19 10:27:45;;;;;;;37.22;26.90;;;;;;;15.27;27.02;95323.81;5029078;28;20053;-57
2022/03/19 10:30:22;;;;;;;37.17;26.43;;;;;;;17.13;24.60;95314.84;5029917;28;20049;-52
2022/03/19 10:32:51;;;;;;;38.58;26.65;;;;;;;20.43;20.60;95319.19;5029219;28;20041;-57
2022/03/19 10:35:24;;;;;;;36.67;26.88;;;;;;;20.48;20.58;95315.81;5027993;28;20045;-51
2022/03/19 10:37:52;;;;;;;38.08;28.48;;;;;;;12.61;29.67;95318.91;5030174;28;20510;-52
2022/03/19 10:40:20;;;;;;;38.45;27.27;;;;;;;17.11;24.23;95297.84;5029365;28;20422;-53
2022/03/19 10:42:47;;;;;;;41.60;28.40;;;;;;;16.15;26.26;95300.94;5030013;28;20401;-52
2022/03/19 10:45:21;;;;;;;36.20;26.88;;;;;;;13.19;28.92;95303.84;5029619;28;20436;-53
2022/03/19 10:47:48;;;;;;;37.17;28.02;;;;;;;15.73;25.70;95283.72;5028899;28;20822;-55
2022/03/19 10:50:21;;;;;;;35.63;25.60;;;;;;;18.50;22.90;95278.66;5029866;28;20045;-52
2022/03/19 10:52:50;;;;;;;37.17;25.75;;;;;;;18.76;22.91;95266.50;5029035;28;20350;-50
2022/03/19 10:55:17;;;;;;;35.10;26.00;;;;;;;18.52;22.71;95279.78;5029164;28;20047;-48
2022/03/19 10:57:46;;;;;;;36.03;26.63;;;;;;;16.81;24.96;95286.88;5029605;28;20053;-52
2022/03/19 11:00:14;;;;;;;37.13;26.30;;;;;;;18.08;22.34;95262.56;5029109;28;20103;-52
2022/03/19 11:02:45;;;;;;;35.17;26.05;;;;;;;15.38;25.80;95271.88;5028934;28;20045;-55
2022/03/19 11:05:17;;;;;;;35.97;25.80;;;;;;;17.80;22.73;95258.41;5029615;28;20052;-49
2022/03/19 11:07:46;;;;;;;35.87;25.17;;;;;;;16.37;24.91;95251.53;5039125;28;20581;-56
2022/03/19 11:10:13;;;;;;;33.58;24.48;;;;;;;18.66;22.08;95256.41;5048794;28;20079;-53
2022/03/19 11:12:50;;;;;;;31.98;23.33;;;;;;;20.22;20.07;95246.16;5047695;28;20041;-55
2022/03/19 11:15:19;;;;;;;30.58;22.95;;;;;;;20.84;19.69;95236.59;5049013;28;20049;-54
2022/03/19 11:17:50;;;;;;;34.75;24.52;;;;;;;15.24;24.59;95247.16;5048978;28;20036;-57
2022/03/19 11:20:17;;;;;;;38.27;25.07;;;;;;;14.91;25.68;95234.91;5057466;28;20037;-53
2022/03/19 11:22:50;;;;;;;34.65;24.10;;;;;;;15.96;24.64;95243.50;5041565;28;20041;-53
2022/03/19 11:25:25;;;;;;;33.63;23.55;;;;;;;14.18;26.10;95248.59;5029003;28;20401;-49
2022/03/19 11:28:03;;;;;;;32.83;25.05;;;;;;;12.13;28.62;95250.47;5029193;28;20056;-53
2022/03/19 11:30:35;;;;;;;32.83;23.67;;;;;;;12.43;28.51;95239.06;5028770;28;20045;-53
2022/03/19 11:33:10;;;;;;;34.50;22.77;;;;;;;15.08;25.52;95214.56;5029361;28;20096;-51
2022/03/19 11:35:40;;;;;;;34.08;23.48;;;;;;;15.73;24.63;95219.28;5028712;28;20049;-58
2022/03/19 11:38:13;;;;;;;36.42;25.30;;;;;;;14.25;27.33;95213.81;5029342;28;20045;-52
2022/03/19 11:40:54;;;;;;;34.60;24.10;;;;;;;14.08;28.12;95212.75;5028752;28;20041;-55
2022/03/19 11:43:24;;;;;;;33.50;23.00;;;;;;;16.35;25.63;95198.53;5028464;28;20057;-49